Time;durP1;ratioP1;P1;durP2;ratioP2;P2;SDS_P1;SDS_P2;PMS_P1;PMS_P2;Temp;Humidity;BMP_temperature;BMP_pressure;BME280_temperature;BME280_humidity;BME280_pressure;Samples;Min_cycle;Max_cycle;Signal;HPM_P1;HPM_P2
2021/05/11 00:02:47;;;;;;;6.27;4.23;;;;;;;13.95;54.51;99557.01;234612;1174;115658;-66
2021/05/11 00:07:49;;;;;;;8.20;4.20;;;;;;;13.89;54.46;99541.97;235153;1170;117146;-65
2021/05/11 00:12:54;;;;;;;6.40;4.30;;;;;;;13.85;55.09;99546.23;233010;1174;116222;-67
2021/05/11 00:17:58;;;;;;;5.60;3.83;;;;;;;13.80;55.24;99545.13;233659;1174;115865;-69
2021/05/11 00:23:02;;;;;;;9.68;3.68;;;;;;;13.78;55.03;99547.27;234373;1174;118054;-70
2021/05/11 00:28:05;;;;;;;6.07;4.17;;;;;;;13.77;55.25;99545.65;233279;1174;116760;-70
2021/05/11 00:33:08;;;;;;;9.93;3.43;;;;;;;13.74;55.49;99556.11;232436;1174;115941;-69
2021/05/11 00:38:11;;;;;;;5.17;4.53;;;;;;;13.72;55.17;99544.84;233591;1174;115506;-69
2021/05/11 00:43:15;;;;;;;10.35;3.85;;;;;;;13.73;55.43;99535.74;232636;1174;117076;-68
2021/05/11 00:48:18;;;;;;;4.30;3.43;;;;;;;13.68;55.46;99541.88;232410;1173;115738;-69
2021/05/11 00:53:23;;;;;;;7.23;4.43;;;;;;;13.61;55.54;99543.16;232927;1174;117172;-68
2021/05/11 00:58:28;;;;;;;3.80;3.43;;;;;;;13.51;55.76;99541.22;232781;1174;116231;-69
2021/05/11 01:03:32;;;;;;;5.00;3.25;;;;;;;13.43;55.69;99541.73;232705;1174;116330;-68
2021/05/11 01:08:37;;;;;;;7.50;3.40;;;;;;;13.37;56.08;99534.72;233147;1174;115833;-68
2021/05/11 01:13:41;;;;;;;3.55;3.25;;;;;;;13.31;56.18;99533.06;233116;1174;116282;-68
2021/05/11 01:18:48;;;;;;;6.43;3.87;;;;;;;13.27;56.26;99526.61;232705;1174;116420;-68
2021/05/11 01:50:47;;;;;;;5.60;4.75;;;;;;;12.74;58.53;99520.28;234633;1176;116919;-64
2021/05/11 02:22:51;;;;;;;5.33;4.38;;;;;;;12.21;59.76;99510.39;233709;1174;115133;-68
2021/05/11 02:27:56;;;;;;;3.55;3.25;;;;;;;12.19;59.90;99515.18;233205;1174;115454;-70
2021/05/11 02:33:02;;;;;;;9.25;4.30;;;;;;;12.19;59.77;99507.16;232426;1167;114935;-69
2021/05/11 02:38:06;;;;;;;4.17;3.80;;;;;;;12.21;59.73;99494.36;232641;1173;115691;-69
2021/05/11 02:43:15;;;;;;;7.10;4.30;;;;;;;12.22;59.81;99493.30;232637;1174;115774;-69
2021/05/11 02:48:18;;;;;;;7.85;4.93;;;;;;;12.24;59.94;99497.31;232727;1174;114906;-67
2021/05/11 02:53:20;;;;;;;7.57;4.17;;;;;;;12.23;60.12;99500.27;232561;1174;115288;-68
2021/05/11 02:58:25;;;;;;;5.88;4.55;;;;;;;12.23;59.81;99501.05;232843;1174;115275;-69
2021/05/11 03:03:28;;;;;;;5.38;4.73;;;;;;;12.23;59.96;99503.72;232505;1174;116291;-68
2021/05/11 03:08:32;;;;;;;7.10;3.40;;;;;;;12.29;59.51;99500.05;232820;1174;115254;-67
2021/05/11 03:13:36;;;;;;;8.00;4.35;;;;;;;12.36;59.77;99503.33;232876;1174;115274;-66
2021/05/11 03:18:43;;;;;;;5.93;4.20;;;;;;;12.42;59.55;99505.00;232925;1171;115828;-69
2021/05/11 03:23:47;;;;;;;10.58;4.90;;;;;;;12.68;59.67;99494.55;233423;1174;115444;-69
2021/05/11 03:28:50;;;;;;;4.85;4.30;;;;;;;12.79;59.51;99496.25;233124;1174;116070;-68
2021/05/11 03:33:54;;;;;;;8.87;3.53;;;;;;;12.94;59.30;99490.20;232690;1174;114618;-69
2021/05/11 03:39:01;;;;;;;5.35;3.38;;;;;;;13.65;58.75;99488.82;232615;1174;116159;-69
2021/05/11 03:44:09;;;;;;;6.98;3.88;;;;;;;14.28;58.67;99486.09;232476;1174;115235;-69
2021/05/11 03:49:12;;;;;;;11.03;4.33;;;;;;;14.83;57.49;99488.06;233122;1174;115290;-69
2021/05/11 03:54:16;;;;;;;4.20;3.85;;;;;;;15.03;56.75;99482.67;234159;1174;115264;-67
2021/05/11 03:59:21;;;;;;;5.10;3.63;;;;;;;15.30;56.57;99470.81;234691;1173;114992;-67
2021/05/11 04:04:25;;;;;;;5.00;3.25;;;;;;;15.98;55.91;99473.84;235119;1174;115372;-66
2021/05/11 04:09:44;;;;;;;4.07;3.60;;;;;;;17.00;54.60;99466.71;234038;1176;115369;-67
2021/05/11 04:20:12;;;;;;;11.08;3.85;;;;;;;21.33;49.26;99468.84;235102;1174;116519;-66
2021/05/11 04:25:17;;;;;;;6.85;4.38;;;;;;;21.70;47.69;99467.55;233977;1174;115333;-66
2021/05/11 04:30:21;;;;;;;5.00;4.45;;;;;;;21.01;47.75;99476.13;234896;1174;115373;-66
2021/05/11 04:35:25;;;;;;;6.25;4.35;;;;;;;20.65;46.56;99472.70;233318;1174;115125;-66
2021/05/11 04:40:29;;;;;;;6.28;4.00;;;;;;;20.37;46.48;99466.55;235161;1173;114904;-67
2021/05/11 04:45:34;;;;;;;9.20;4.80;;;;;;;20.72;45.93;99468.45;232897;1167;114972;-67
2021/05/11 04:50:37;;;;;;;9.60;4.46;;;;;;;21.08;45.17;99460.23;232978;1174;115197;-66
2021/05/11 04:55:41;;;;;;;6.83;4.37;;;;;;;21.17;44.62;99461.06;233870;1174;114970;-67
2021/05/11 05:00:49;;;;;;;5.95;4.43;;;;;;;20.84;45.32;99457.84;233215;1174;115742;-67
2021/05/11 05:05:53;;;;;;;5.87;5.07;;;;;;;21.23;45.09;99459.05;232637;1174;115899;-65
2021/05/11 05:10:57;;;;;;;9.55;4.65;;;;;;;24.83;42.15;99465.16;233020;1174;115317;-66
2021/05/11 05:16:00;;;;;;;8.03;4.50;;;;;;;29.24;37.75;99460.55;233082;1174;115741;-67
2021/05/11 05:21:07;;;;;;;7.50;4.35;;;;;;;32.35;34.28;99461.75;233037;1174;115820;-68
2021/05/11 05:26:14;;;;;;;5.25;3.75;;;;;;;34.81;31.25;99452.22;233339;1174;115881;-72
2021/05/11 05:31:17;;;;;;;3.40;3.03;;;;;;;36.49;29.15;99455.05;232366;1174;117690;-72
2021/05/11 05:36:21;;;;;;;;;;;;;;;37.76;26.65;99459.91;233061;1174;115262;-73
2021/05/11 05:41:25;;;;;;;6.33;2.83;;;;;;;38.62;25.20;99454.25;234218;1169;190386;-72
2021/05/11 05:46:33;;;;;;;2.53;2.33;;;;;;;39.25;23.32;99456.00;232734;1176;116731;-71
2021/05/11 05:51:37;;;;;;;4.55;2.70;;;;;;;39.35;22.20;99454.97;232324;1174;116419;-71
2021/05/11 05:56:40;;;;;;;5.57;3.10;;;;;;;39.48;22.09;99455.05;233040;1174;115230;-69
2021/05/11 06:01:42;;;;;;;3.55;3.15;;;;;;;37.58;22.29;99460.21;233388;1174;116469;-69
2021/05/11 06:06:48;;;;;;;9.43;2.83;;;;;;;36.47;23.57;99451.91;232687;1176;116225;-71
2021/05/11 06:17:17;;;;;;;2.93;2.30;;;;;;;34.69;23.67;99428.52;234783;1174;116204;-71
2021/05/11 06:22:22;;;;;;;12.17;2.57;;;;;;;32.95;24.26;99426.07;234031;1174;116619;-73
2021/05/11 06:27:25;;;;;;;10.40;3.25;;;;;;;30.97;25.65;99428.39;232551;1174;116304;-74
2021/05/11 06:32:28;;;;;;;3.45;3.15;;;;;;;29.56;26.99;99425.41;232524;1174;116381;-71
2021/05/11 06:37:32;;;;;;;5.00;4.15;;;;;;;28.53;28.44;99426.28;232535;1167;116325;-71
2021/05/11 06:42:38;;;;;;;3.83;3.53;;;;;;;27.88;29.87;99417.84;233054;1174;115959;-70
2021/05/11 06:52:55;;;;;;;4.87;4.40;;;;;;;26.65;30.36;99411.63;232553;1175;115725;-72
2021/05/11 06:58:03;;;;;;;12.90;4.45;;;;;;;27.23;31.45;99407.30;232417;1174;115978;-74
2021/05/11 07:03:05;;;;;;;3.58;3.15;;;;;;;28.72;30.21;99405.13;232400;1174;115782;-73
2021/05/11 07:08:15;;;;;;;7.63;3.73;;;;;;;29.72;30.78;99401.30;232530;1174;115739;-72
2021/05/11 07:13:21;;;;;;;3.70;3.03;;;;;;;30.51;30.65;99400.39;232499;1173;115483;-72
2021/05/11 07:18:24;;;;;;;7.30;3.10;;;;;;;31.01;30.44;99394.23;232610;1174;115397;-72
2021/05/11 07:23:28;;;;;;;3.50;3.15;;;;;;;31.24;29.59;99399.56;232891;1174;118783;-72
2021/05/11 07:33:48;;;;;;;3.87;3.47;;;;;;;30.73;30.00;99396.72;232827;1174;115449;-72
2021/05/11 07:38:53;;;;;;;6.60;3.30;;;;;;;30.70;30.17;99397.47;233414;1173;115957;-72
2021/05/11 07:43:57;;;;;;;4.28;2.93;;;;;;;30.75;30.45;99394.38;232557;1174;115891;-72
2021/05/11 08:15:30;;;;;;;6.18;3.35;;;;;;;29.80;31.66;99361.78;232432;1174;115237;-70
2021/05/11 08:31:05;;;;;;;3.47;2.17;;;;;;;30.02;33.63;99351.88;235174;1174;115454;-74
2021/05/11 08:36:11;;;;;;;4.70;2.80;;;;;;;29.92;31.66;99347.83;232742;1174;116338;-69
2021/05/11 08:41:14;;;;;;;4.85;2.45;;;;;;;29.86;32.79;99348.52;232499;1174;115042;-70
2021/05/11 08:46:17;;;;;;;2.20;2.00;;;;;;;29.71;32.03;99340.08;233102;1174;115927;-72
2021/05/11 09:23:49;;;;;;;;;;;;;;;29.61;32.76;99324.27;233478;1167;115560;-71
2021/05/11 09:29:00;;;;;;;6.30;2.40;;;;;;;29.66;33.52;99321.16;233378;1173;103424;-70
2021/05/11 10:49:24;;;;;;;2.50;1.75;;;;;;;29.98;32.08;99304.29;233558;1174;115098;-69
2021/05/11 10:54:39;;;;;;;5.45;2.73;;;;;;;30.03;32.27;99299.28;232713;1174;115585;-69
2021/05/11 10:59:53;;;;;;;1.17;1.13;;;;;;;30.20;31.89;99297.92;233291;1174;116335;-69
2021/05/11 11:05:00;;;;;;;4.13;2.78;;;;;;;30.05;31.98;99296.95;233496;1174;115083;-68
2021/05/11 11:10:07;;;;;;;2.08;1.98;;;;;;;29.95;31.83;99292.12;232334;1174;115982;-69
2021/05/11 11:15:18;;;;;;;8.43;2.78;;;;;;;29.82;32.38;99282.53;232992;1174;115257;-70
2021/05/11 11:20:32;;;;;;;4.93;2.60;;;;;;;29.77;33.28;99280.90;232631;1174;115687;-68
2021/05/11 11:25:35;;;;;;;3.10;1.93;;;;;;;29.86;31.97;99271.59;232479;1174;115751;-69
2021/05/11 11:30:38;;;;;;;2.90;2.65;;;;;;;29.89;32.73;99274.38;233579;1174;119090;-68
2021/05/11 11:35:42;;;;;;;2.20;2.10;;;;;;;29.93;31.45;99272.47;233197;1174;115581;-70
2021/05/11 11:40:45;;;;;;;3.50;2.25;;;;;;;30.05;31.64;99258.48;232170;1174;115197;-68
2021/05/11 11:45:48;;;;;;;2.20;2.00;;;;;;;30.09;31.72;99248.31;232823;1174;117480;-68
2021/05/11 11:50:55;;;;;;;3.23;2.10;;;;;;;30.01;31.85;99248.61;233352;1169;115822;-69
2021/05/11 12:01:17;;;;;;;5.95;5.53;;;;;;;29.95;31.52;99248.15;233308;1174;117000;-69
2021/05/11 12:06:28;;;;;;;2.03;1.83;;;;;;;29.85;31.97;99243.31;232679;1173;115389;-67
2021/05/11 12:11:34;;;;;;;2.47;2.03;;;;;;;29.92;31.95;99235.16;232699;1174;115938;-70
2021/05/11 12:16:45;;;;;;;3.93;1.90;;;;;;;29.83;31.83;99231.91;233153;1173;116205;-70
2021/05/11 12:21:53;;;;;;;5.10;1.80;;;;;;;29.77;32.58;99236.16;235066;1173;115923;-71
2021/05/11 12:27:22;;;;;;;8.60;8.03;;;;;;;29.85;30.99;99234.28;235116;1174;114978;-71
2021/05/11 12:32:24;;;;;;;2.40;2.20;;;;;;;29.91;31.00;99213.55;234216;1174;115400;-71
2021/05/11 12:37:46;;;;;;;4.07;2.00;;;;;;;29.83;30.91;99218.96;233556;1174;115616;-71
2021/05/11 12:42:49;;;;;;;8.18;4.13;;;;;;;29.81;31.45;99215.80;234174;1174;115817;-71
2021/05/11 12:48:00;;;;;;;1.90;1.80;;;;;;;29.79;31.18;99211.84;234153;1174;114970;-71
2021/05/11 12:53:45;;;;;;;5.35;2.40;;;;;;;29.71;31.44;99215.67;233257;1174;115240;-70
2021/05/11 13:15:24;;;;;;;2.30;2.03;;;;;;;29.78;31.93;99191.03;232621;1174;116408;-71
2021/05/11 13:25:50;;;;;;;6.88;3.65;;;;;;;29.43;32.23;99174.93;232413;1167;115473;-70
2021/05/11 13:36:16;;;;;;;4.57;2.77;;;;;;;29.16;32.60;99158.50;232917;1174;115866;-71
2021/05/11 13:41:20;;;;;;;26.38;13.23;;;;;;;29.21;32.05;99153.85;232620;1174;115229;-69
2021/05/11 13:46:25;;;;;;;4.03;2.63;;;;;;;29.11;32.71;99147.05;233165;1174;115578;-70
2021/05/11 13:51:30;;;;;;;7.95;3.50;;;;;;;29.05;31.98;99148.53;233277;1174;115543;-77
2021/05/11 13:56:45;;;;;;;7.80;1.87;;;;;;;28.87;32.38;99133.80;232459;1174;115278;-71
2021/05/11 14:07:02;;;;;;;3.67;2.47;;;;;;;28.75;32.77;99134.77;234284;1174;115239;-71
2021/05/11 14:12:05;;;;;;;11.83;5.23;;;;;;;28.70;32.67;99129.63;235061;1174;115792;-72
2021/05/11 14:17:08;;;;;;;3.27;2.27;;;;;;;28.68;32.94;99115.50;235085;1174;115566;-75
2021/05/11 14:22:13;;;;;;;3.20;2.53;;;;;;;28.63;32.90;99116.60;235153;1173;116297;-72
2021/05/11 14:27:16;;;;;;;4.38;2.18;;;;;;;28.51;32.20;99111.32;235174;1174;115649;-72
2021/05/11 14:32:19;;;;;;;4.87;2.47;;;;;;;28.38;32.59;99107.23;233835;1174;115856;-72
2021/05/11 14:37:22;;;;;;;5.65;2.53;;;;;;;28.43;32.44;99095.95;233111;1173;116144;-72
2021/05/11 14:42:25;;;;;;;3.03;1.98;;;;;;;28.47;31.82;99089.33;232708;1174;115447;-72
2021/05/11 14:47:29;;;;;;;2.40;2.13;;;;;;;28.55;31.55;99081.22;233811;1174;116728;-70
2021/05/11 14:52:32;;;;;;;3.33;1.93;;;;;;;28.58;31.45;99085.96;233300;1174;114784;-71
2021/05/11 14:57:35;;;;;;;6.03;2.40;;;;;;;28.57;31.26;99076.16;232436;1174;115370;-71
2021/05/11 15:02:38;;;;;;;6.18;2.40;;;;;;;28.53;31.25;99075.31;232506;1174;115169;-71
2021/05/11 15:07:41;;;;;;;2.53;2.33;;;;;;;28.41;31.67;99062.63;232535;1174;115848;-69
2021/05/11 15:12:44;;;;;;;3.20;2.67;;;;;;;28.30;31.89;99054.24;233174;1174;114694;-69
2021/05/11 15:22:52;;;;;;;3.47;1.80;;;;;;;28.03;32.25;99050.67;232392;1174;115362;-69
2021/05/11 15:27:57;;;;;;;4.83;2.67;;;;;;;27.95;32.13;99042.70;232468;1173;115314;-71
2021/05/11 15:33:03;;;;;;;2.80;2.58;;;;;;;27.88;32.18;99042.58;232385;1174;115582;-73
2021/05/11 15:38:11;;;;;;;4.25;2.93;;;;;;;27.78;33.04;99033.84;232368;1174;116025;-74
2021/05/11 15:43:15;;;;;;;2.53;2.38;;;;;;;27.68;33.30;99028.17;232417;1174;116103;-70
2021/05/11 15:48:19;;;;;;;;;;;;;;;27.62;33.47;99035.90;232508;1174;115815;-73
2021/05/11 15:53:23;;;;;;;4.03;1.95;;;;;;;27.49;33.85;99029.80;233650;1174;103749;-69
2021/05/11 15:58:26;;;;;;;3.68;2.75;;;;;;;27.40;34.16;99026.50;233222;1167;115802;-69
2021/05/11 16:03:30;;;;;;;6.88;2.75;;;;;;;27.32;33.67;99024.78;232827;1174;115896;-72
2021/05/11 16:08:32;;;;;;;8.73;3.00;;;;;;;27.25;33.36;99029.33;233470;1174;115284;-70
2021/05/11 16:13:39;;;;;;;2.77;2.53;;;;;;;27.16;33.84;99019.42;233188;1174;116157;-69
2021/05/11 16:18:42;;;;;;;2.68;2.48;;;;;;;27.05;33.81;99021.16;232895;1170;115276;-69
2021/05/11 16:23:47;;;;;;;7.60;2.98;;;;;;;26.97;33.57;99013.95;234957;1174;118904;-71
2021/05/11 16:28:54;;;;;;;4.20;2.83;;;;;;;26.87;33.32;99008.27;235038;1174;115296;-70
2021/05/11 16:33:58;;;;;;;4.08;2.28;;;;;;;26.75;33.95;99018.19;234474;1174;115558;-69
2021/05/11 16:39:01;;;;;;;4.48;2.60;;;;;;;26.69;34.00;99014.15;235043;1174;115174;-71
2021/05/11 16:44:05;;;;;;;4.90;2.88;;;;;;;26.62;34.00;99010.47;234610;1174;115290;-71
2021/05/11 16:49:09;;;;;;;3.95;2.30;;;;;;;26.57;34.59;99019.77;232821;1174;115897;-72
2021/05/11 16:54:12;;;;;;;3.80;1.97;;;;;;;26.46;33.41;99016.80;234451;1174;115503;-74
2021/05/11 16:59:15;;;;;;;5.80;2.75;;;;;;;26.36;33.42;99022.81;232347;1174;116457;-70
2021/05/11 17:04:21;;;;;;;6.48;2.80;;;;;;;26.25;33.69;99015.52;232389;1174;115013;-70
2021/05/11 17:09:23;;;;;;;3.25;2.95;;;;;;;26.06;34.01;99018.97;232474;1174;116102;-69
2021/05/11 17:14:27;;;;;;;5.78;2.45;;;;;;;25.88;33.85;99013.09;232711;1173;116319;-68
2021/05/11 17:19:29;;;;;;;4.87;2.77;;;;;;;25.70;34.28;99018.11;232979;1174;116114;-67
2021/05/11 17:24:32;;;;;;;9.35;2.73;;;;;;;25.56;34.29;99009.55;233075;1174;115778;-67
2021/05/11 17:29:35;;;;;;;4.15;3.00;;;;;;;25.41;34.40;99013.05;232509;1169;116124;-68
2021/05/11 17:34:41;;;;;;;8.63;3.33;;;;;;;25.24;34.63;99013.39;232576;1167;115767;-68
2021/05/11 17:39:44;;;;;;;3.13;2.25;;;;;;;25.06;35.01;99018.38;233095;1174;115397;-67
2021/05/11 17:44:47;;;;;;;17.63;3.03;;;;;;;24.88;34.79;99012.38;232813;1174;115703;-68
2021/05/11 17:49:53;;;;;;;3.88;2.95;;;;;;;24.75;35.22;99014.38;232552;1174;116190;-67
2021/05/11 17:54:56;;;;;;;5.28;2.08;;;;;;;24.62;35.36;99017.47;232406;1175;115892;-68
2021/05/11 17:59:59;;;;;;;2.63;2.43;;;;;;;24.47;35.20;99016.25;233912;1174;115659;-69
2021/05/11 18:05:04;;;;;;;2.38;2.05;;;;;;;24.33;35.42;99013.91;233905;1174;117019;-70
2021/05/11 18:10:10;;;;;;;5.45;2.10;;;;;;;24.22;35.53;99017.41;232658;1174;115964;-68
2021/05/11 18:15:13;;;;;;;4.20;3.03;;;;;;;24.05;36.22;99021.17;232593;1174;116379;-68
2021/05/11 18:20:17;;;;;;;3.13;2.70;;;;;;;23.91;36.26;99024.22;234430;1174;116091;-68
2021/05/11 18:25:21;;;;;;;3.20;2.15;;;;;;;23.78;36.89;99026.16;232722;1176;116675;-69
2021/05/11 18:30:23;;;;;;;10.30;2.77;;;;;;;23.67;37.30;99041.34;234997;1176;117531;-69
2021/05/11 18:35:31;;;;;;;9.27;2.77;;;;;;;23.59;37.52;99044.15;234984;1174;117005;-69
2021/05/11 18:40:34;;;;;;;4.93;2.87;;;;;;;23.53;37.77;99042.80;234968;1174;115963;-70
2021/05/11 18:45:37;;;;;;;5.23;3.13;;;;;;;23.50;37.98;99044.23;232804;1174;116105;-68
2021/05/11 18:50:41;;;;;;;12.10;3.37;;;;;;;23.36;38.30;99043.73;232459;1174;214517;-70
2021/05/11 18:55:44;;;;;;;4.43;3.30;;;;;;;23.23;38.51;99050.28;233404;1174;115839;-70
2021/05/11 19:00:47;;;;;;;4.43;3.60;;;;;;;23.13;38.75;99043.33;232883;1174;116245;-69
2021/05/11 19:05:52;;;;;;;11.48;3.43;;;;;;;23.04;38.80;99048.84;232701;1174;116967;-69
2021/05/11 19:10:55;;;;;;;3.35;3.08;;;;;;;22.94;39.01;99041.08;232769;1174;117519;-70
2021/05/11 19:16:05;;;;;;;3.40;3.10;;;;;;;22.80;38.83;99041.38;232777;1174;115886;-70
2021/05/11 19:21:11;;;;;;;8.20;3.50;;;;;;;22.69;39.02;99045.58;232975;1174;115321;-67
2021/05/11 19:26:14;;;;;;;3.03;2.75;;;;;;;22.61;38.50;99040.23;232607;1174;117373;-67
2021/05/11 19:31:18;;;;;;;4.17;3.00;;;;;;;22.51;39.00;99050.35;232761;1174;116996;-67
2021/05/11 19:36:21;;;;;;;7.70;3.83;;;;;;;22.39;38.65;99044.83;232668;1174;116097;-66
2021/05/11 19:41:30;;;;;;;6.33;3.37;;;;;;;22.32;38.94;99060.08;233429;1174;115622;-67
2021/05/11 19:46:33;;;;;;;5.38;3.10;;;;;;;22.23;39.19;99051.97;233515;1173;116270;-67
2021/05/11 19:51:39;;;;;;;2.83;2.50;;;;;;;22.11;39.12;99054.58;233565;1174;119219;-68
2021/05/11 19:56:48;;;;;;;3.65;3.35;;;;;;;21.96;39.65;99061.34;233812;1174;115465;-66
2021/05/11 20:02:00;;;;;;;3.03;2.83;;;;;;;21.84;39.79;99053.08;233116;1171;116925;-67
2021/05/11 20:07:05;;;;;;;11.98;3.50;;;;;;;21.70;40.01;99052.52;232434;1174;116317;-67
2021/05/11 20:12:11;;;;;;;6.13;2.65;;;;;;;21.60;40.01;99050.94;233323;1176;117442;-67
2021/05/11 20:17:14;;;;;;;7.78;3.15;;;;;;;21.49;40.13;99058.62;235129;1176;116407;-66
2021/05/11 20:22:20;;;;;;;3.23;2.70;;;;;;;21.45;40.19;99063.09;232819;1170;117456;-66
2021/05/11 20:27:24;;;;;;;2.93;2.50;;;;;;;21.38;40.33;99062.81;235180;1174;116556;-69
2021/05/11 20:32:28;;;;;;;4.13;3.03;;;;;;;21.33;40.35;99056.75;235212;1175;117097;-67
2021/05/11 20:37:32;;;;;;;3.73;2.20;;;;;;;21.26;40.33;99051.81;234896;1174;117100;-67
2021/05/11 20:42:36;;;;;;;13.70;2.78;;;;;;;21.25;40.37;99055.64;235142;1175;117167;-66
2021/05/11 20:47:41;;;;;;;4.78;2.45;;;;;;;21.20;40.09;99053.06;235129;1174;117828;-66
2021/05/11 20:52:44;;;;;;;8.00;2.90;;;;;;;21.12;40.33;99059.28;234461;1175;116090;-67
2021/05/11 20:57:48;;;;;;;2.93;1.93;;;;;;;21.04;40.35;99054.69;232398;1174;117173;-65
2021/05/11 21:02:51;;;;;;;6.05;2.83;;;;;;;20.95;40.11;99051.98;233738;1174;115742;-65
2021/05/11 21:07:56;;;;;;;3.60;2.15;;;;;;;20.80;40.39;99049.73;232697;1174;116106;-66
2021/05/11 21:13:00;;;;;;;6.17;2.83;;;;;;;20.62;40.79;99059.77;232590;1174;119220;-66
2021/05/11 21:18:04;;;;;;;2.80;2.60;;;;;;;20.49;41.21;99066.11;232671;1174;115754;-66
2021/05/11 21:23:08;;;;;;;7.80;2.90;;;;;;;20.33;41.34;99073.07;233453;1174;119392;-66
2021/05/11 21:28:12;;;;;;;5.60;2.63;;;;;;;20.17;41.49;99059.99;232727;1174;115895;-66
2021/05/11 21:33:15;;;;;;;4.83;2.60;;;;;;;20.04;41.64;99060.09;233374;1174;116306;-64
2021/05/11 21:38:18;;;;;;;4.40;2.27;;;;;;;19.90;41.86;99067.50;233322;1174;116974;-65
2021/05/11 21:43:23;;;;;;;6.83;2.70;;;;;;;19.78;41.97;99063.50;233020;1175;116417;-65
2021/05/11 21:48:27;;;;;;;3.50;2.23;;;;;;;19.64;42.40;99056.58;232408;1174;115640;-65
2021/05/11 21:53:32;;;;;;;5.93;2.73;;;;;;;19.50;42.56;99049.38;232572;1174;115703;-67
2021/05/11 21:58:35;;;;;;;11.60;3.57;;;;;;;19.37;42.65;99046.70;233874;1170;114981;-64
2021/05/11 22:03:41;;;;;;;9.17;2.90;;;;;;;19.28;43.01;99046.64;232556;1173;115687;-66
2021/05/11 22:08:45;;;;;;;6.85;2.70;;;;;;;19.18;43.17;99044.22;233206;1174;116782;-67
2021/05/11 22:13:51;;;;;;;2.57;2.00;;;;;;;19.14;43.03;99044.03;233851;1173;114972;-67
2021/05/11 22:18:56;;;;;;;2.63;2.30;;;;;;;19.07;43.04;99037.45;232763;1174;115553;-66
2021/05/11 22:23:59;;;;;;;3.73;2.73;;;;;;;19.00;43.19;99037.08;234434;1174;114801;-66
2021/05/11 22:29:04;;;;;;;6.45;3.18;;;;;;;18.94;43.10;99041.03;234618;1174;115446;-66
2021/05/11 22:34:07;;;;;;;4.00;2.80;;;;;;;18.87;43.42;99035.25;234945;1174;115176;-67
2021/05/11 22:39:10;;;;;;;5.93;2.27;;;;;;;18.79;43.53;99037.56;235169;1174;115943;-67
2021/05/11 22:44:12;;;;;;;7.98;2.95;;;;;;;18.72;43.28;99030.98;235017;1174;118587;-67
2021/05/11 22:49:16;;;;;;;6.23;2.40;;;;;;;18.66;43.20;99043.00;233813;1174;116065;-67
2021/05/11 22:54:20;;;;;;;4.53;2.37;;;;;;;18.60;43.55;99041.55;233869;1174;117456;-66
2021/05/11 22:59:25;;;;;;;4.13;2.70;;;;;;;18.55;43.45;99039.72;233807;1174;117280;-66
2021/05/11 23:04:29;;;;;;;3.16;2.20;;;;;;;18.46;43.57;99033.44;233288;1176;116067;-67
2021/05/11 23:09:32;;;;;;;4.43;2.65;;;;;;;18.34;43.74;99030.48;233540;1174;116921;-66
2021/05/11 23:14:36;;;;;;;4.70;2.37;;;;;;;18.23;43.94;99031.78;233258;1174;116733;-67
2021/05/11 23:19:38;;;;;;;3.73;2.53;;;;;;;18.11;44.12;99027.69;232488;1174;115780;-67
2021/05/11 23:24:41;;;;;;;15.70;3.50;;;;;;;18.00;44.44;99025.52;232554;1174;115526;-67
2021/05/11 23:29:44;;;;;;;8.50;2.85;;;;;;;17.91;44.43;99028.11;233273;1174;116279;-65
2021/05/11 23:34:47;;;;;;;4.50;2.75;;;;;;;17.85;44.47;99021.21;233167;1174;115682;-66
2021/05/11 23:39:50;;;;;;;2.70;2.50;;;;;;;17.79;44.56;99015.11;232648;1174;116185;-67
2021/05/11 23:44:56;;;;;;;3.00;2.75;;;;;;;17.71;44.63;99015.83;232908;1173;115815;-69
2021/05/11 23:49:59;;;;;;;4.20;3.20;;;;;;;17.63;44.82;99021.88;232563;1170;115564;-68
2021/05/11 23:55:04;;;;;;;4.15;3.08;;;;;;;17.58;44.92;99013.08;233000;1174;115606;-67
